Αναφορές METAR από Ελληνικά Αεροδρόμια

Σε αυτή τη σελίδα, μπορείτε να παρακολουθείτε τις αναφορές METAR που προέρχονται από τα κυριότερα αεροδρόμια της Ελλάδας. Το περιεχόμενο αποκωδικοποιείται, οπτικοποιείται και γίνεται κατανοητό από τον καθένα με τη χρήση του όμορφου δίγλωσσου γραφικού περιβάλλοντος του meteothes.gr!

Η αρχική κωδικοποιημένη αναφορά, συμπεριλαμβάνεται επίσης στο κάτω μέρος. Σε όποια καθεστερεί η ενημέρωση, το προειδοποιητικό μήνυμα "Μη ενημερωμένο METAR!" εμφανίζεται στο πάνω μέρος της με κόκκινα γράμματα.

Εχουν προστεθεί επίσης δύο αεροδρόμια από γειτονικές χώρες, την Οχρίδα(ΠΓΔΜ) και την Σόφια(Βουλγαρία) για να ελέγχουμε την εξέλιξη των ψυχρών εισβολών από τα Βόρεια!

LGTS - Thessaloniki/Makedonia-Elev 7m
Απόσταση από meteothes.gr: Ν 13km
Ενημερώθηκε: 23/01/2021 18:20
Ασθενής βροχή, Μερικώς νεφελώδης
Ασθενής βροχή, Μερικώς νεφελώδης
 Ανεμος από ΑΝΑ
Ανεμος: ΑΝΑ 19 km/h
Θερμοκρασία: 13°C
Σημ. Δρόσου: 10°C
Υγρασία: 82%
Βαρόμετρο: 1009 hPa
Συνθήκες: Ασθενής βροχή
Νέφωση: Μερικώς νεφελώδης
Ορατότητα: 10 km
Λεπτομέρειες Νεφών: Μερικώς νεφελώδης 762 m
2021/01/23 16:20 LGTS 231620Z 12010KT 9999 -RA SCT025 13/10 Q1009 NOSIG
LGAV - Athens/Elef. Venizelos-Elev 94m
Απόσταση από meteothes.gr: ΝΝΑ 312km
Ενημερώθηκε: 23/01/2021 18:20
Κυρίως νεφελώδης
Κυρίως νεφελώδης
 Ανεμος από Ν
Ανεμος: Ν 28 km/h
Θερμοκρασία: 14°C
Σημ. Δρόσου: 6°C
Υγρασία: 59%
Βαρόμετρο: 1013 hPa
Νέφωση: Κυρίως νεφελώδης
Ορατότητα: 10 km
Λεπτομέρειες Νεφών: Μερικώς νεφελώδης 762 m
Κυρίως νεφελώδης 2134 m
2021/01/23 16:20 LGAV 231620Z 19015KT 9999 SCT025 BKN070 14/06 Q1013 NOSIG
 
LGAL - Alexandroupolis-Elev 3m
Απόσταση από meteothes.gr: Α 251km
Ενημερώθηκε: 23/01/2021 18:20
Μερικώς νεφελώδης
Μερικώς νεφελώδης
 Ανεμος από ΝΝΔ
Ανεμος: ΝΝΔ 30 km/h
Θερμοκρασία: 13°C
Σημ. Δρόσου: 9°C
Υγρασία: 77%
Βαρόμετρο: 1012 hPa
Νέφωση: Μερικώς νεφελώδης
Ορατότητα: 10 km
Λεπτομέρειες Νεφών: Διάσπαρτα Nέφη 549 m
Μερικώς νεφελώδης 762 m
2021/01/23 16:20 LGAL 231620Z 20016KT 9999 FEW018 SCT025 13/09 Q1012
LGKV - Kavala/Crysoupolis-Elev 5m
Απόσταση από meteothes.gr: ΑΒΑ 144km
Ενημερώθηκε: 23/01/2021 18:20
Κυρίως νεφελώδης
Κυρίως νεφελώδης
 Ανεμος από άπνοια
Ανεμος: άπνοια
Θερμοκρασία: 13°C
Σημ. Δρόσου: 10°C
Υγρασία: 82%
Βαρόμετρο: 1010 hPa
Νέφωση: Κυρίως νεφελώδης
Ορατότητα: 10 km
Λεπτομέρειες Νεφών: Διάσπαρτα Nέφη 762 m
Μερικώς νεφελώδης 1067 m
Κυρίως νεφελώδης 2134 m
2021/01/23 16:20 LGKV 231620Z 00000KT 9999 FEW025 SCT035 BKN070 13/10 Q1010
 
LGSK - Skiathos Island-Elev 15m
Απόσταση από meteothes.gr: ΝΝΑ 168km
Ενημερώθηκε: 23/01/2021 16:50
ΜΗ Ενημερωμένο METAR!
Μερικώς νεφελώδης
Μερικώς νεφελώδης
 Ανεμος από Ν
Ανεμος: Ν 19 km/h
Θερμοκρασία: 15°C
Σημ. Δρόσου: 10°C
Υγρασία: 72%
Βαρόμετρο: 1011 hPa
Νέφωση: Μερικώς νεφελώδης
Ορατότητα: 10 km
Λεπτομέρειες Νεφών: Μερικώς νεφελώδης 762 m
2021/01/23 14:50 LGSK 231450Z 19010KT 9999 SCT025 15/10 Q1011
LGLM - Limnos Island-Elev 5m
Απόσταση από meteothes.gr: ΑΝΑ 210km
Ενημερώθηκε: 23/01/2021 18:20
Διάσπαρτα Nέφη
Διάσπαρτα Nέφη
 Ανεμος από ΝΝΔ
Ανεμος: ΝΝΔ 28 km/h, Ριπή: 46 km/h
Θερμοκρασία: 14°C
Σημ. Δρόσου: 8°C
Υγρασία: 67%
Βαρόμετρο: 1012 hPa
Νέφωση: Διάσπαρτα Nέφη
Ορατότητα: 10 km
Λεπτομέρειες Νεφών: Διάσπαρτα Nέφη 549 m
2021/01/23 16:20 LGLM 231620Z 21015G25KT 9999 FEW018 14/08 Q1012
 
LGMT - Mitilini Island-Elev 17m
Απόσταση από meteothes.gr: ΑΝΑ 358km
Ενημερώθηκε: 23/01/2021 18:20
Μερικώς νεφελώδης
Μερικώς νεφελώδης
 Ανεμος από ΝΝΔ
Ανεμος: ΝΝΔ 33 km/h
Θερμοκρασία: 14°C
Σημ. Δρόσου: 9°C
Υγρασία: 72%
Βαρόμετρο: 1016 hPa
Νέφωση: Μερικώς νεφελώδης
Ορατότητα: 10 km
Λεπτομέρειες Νεφών: Διάσπαρτα Nέφη 549 m
Μερικώς νεφελώδης 762 m
2021/01/23 16:20 LGMT 231620Z 20018KT 9999 FEW018 SCT025 14/09 Q1016
LGSY - Skiros Island-Elev 15m
Απόσταση από meteothes.gr: ΝΑ 227km
Ενημερώθηκε: 20/01/2021 19:50
ΜΗ Ενημερωμένο METAR!
Αίθριος
Αίθριος
 Ανεμος από μεταβλητός
Ανεμος: μεταβλητός 6 km/h
Θερμοκρασία: 5°C
Σημ. Δρόσου: 4°C
Υγρασία: 93%
Βαρόμετρο: 1026 hPa
Συνθήκες: Αίθριος
Ορατότητα: πάνω από 10 km
2021/01/20 17:50 LGSY 201750Z VRB03KT CAVOK 05/04 Q1026 RMK FEW180 BLU
 
LGKZ - Kozani-Elev 628m
Απόσταση από meteothes.gr: ΔΝΔ 102km
Ενημερώθηκε: 23/01/2021 18:20
Ασθενής βροχή
Ασθενής βροχή
 Ανεμος από Ν
Ανεμος: Ν 15 km/h
Θερμοκρασία: 7°C
Αίσθηση Ψύχρας: 4°C
Σημ. Δρόσου: 6°C
Υγρασία: 93%
Βαρόμετρο: 1009 hPa
Συνθήκες: Ασθενής βροχή
2021/01/23 16:20 LGKZ 231620Z AUTO 19008KT //// -RA ////// 07/06 Q1009 RE//
LGIO - Ioannina-Elev 476m
Απόσταση από meteothes.gr: ΔΝΔ 209km
Ενημερώθηκε: 23/01/2021 17:50
Ασθενής βροχή
Ασθενής βροχή
 Ανεμος από ΝΑ
Ανεμος: ΝΑ 19 km/h
Θερμοκρασία: 7°C
Αίσθηση Ψύχρας: 4°C
Σημ. Δρόσου: 6°C
Υγρασία: 93%
Βαρόμετρο: 1009 hPa
Συνθήκες: Ασθενής βροχή
2021/01/23 15:50 LGIO 231550Z AUTO 14010KT //// -RA ////// 07/06 Q1009 RE//
 
LGZA - Zakinthos-Elev 3m
Απόσταση από meteothes.gr: ΝΝΔ 367km
Ενημερώθηκε: 23/01/2021 18:20
Βροχή, Κυρίως νεφελώδης
Βροχή, Κυρίως νεφελώδης
 Ανεμος από Ν
Ανεμος: Ν 22 km/h
Θερμοκρασία: 14°C
Σημ. Δρόσου: 12°C
Υγρασία: 88%
Βαρόμετρο: 1013 hPa
Συνθήκες: Βροχή
Νέφωση: Κυρίως νεφελώδης
Ορατότητα: 7 km
Λεπτομέρειες Νεφών: Διάσπαρτα Nέφη 488 m
Μερικώς νεφελώδης 549 m
Κυρίως νεφελώδης 2134 m
2021/01/23 16:20 LGZA 231620Z 19012KT 7000 RA FEW016TCU SCT018 BKN070 14/12 Q1013
LGKR - Corfu Island-Elev 2m
Απόσταση από meteothes.gr: ΔΝΔ 282km
Ενημερώθηκε: 23/01/2021 18:20
Ασθενής βροχή, Κυρίως νεφελώδης
Ασθενής βροχή, Κυρίως νεφελώδης
 Ανεμος από Ν
Ανεμος: Ν 24 km/h
Θερμοκρασία: 13°C
Σημ. Δρόσου: 12°C
Υγρασία: 94%
Βαρόμετρο: 1008 hPa
Συνθήκες: Ασθενής βροχή
Νέφωση: Κυρίως νεφελώδης
Ορατότητα: 6 km
Λεπτομέρειες Νεφών: Μερικώς νεφελώδης 366 m
Κυρίως νεφελώδης 762 m
Κυρίως νεφελώδης 2438 m
2021/01/23 16:20 LGKR 231620Z 19013KT 6000 -RA SCT012TCU BKN025 BKN080 13/12 Q1008 NOSIG
 
LGSO - Syros Island-Elev 72m
Απόσταση από meteothes.gr: ΝΝΑ 397km
Ενημερώθηκε: 23/01/2021 17:50
Κυρίως νεφελώδης
Κυρίως νεφελώδης
 Ανεμος από Ν
Ανεμος: Ν 26 km/h
Θερμοκρασία: 14°C
Σημ. Δρόσου: 6°C
Υγρασία: 59%
Βαρόμετρο: 1016 hPa
Νέφωση: Κυρίως νεφελώδης
Ορατότητα: 10 km
Λεπτομέρειες Νεφών: Μερικώς νεφελώδης 457 m
Κυρίως νεφελώδης 610 m
2021/01/23 15:50 LGSO 231550Z 19014KT 9999 SCT015 BKN020 14/06 Q1016
LGMK - Mikonos Island-Elev 123m
Απόσταση από meteothes.gr: ΝΝΑ 412km
Ενημερώθηκε: 23/01/2021 17:50
Μερικώς νεφελώδης
Μερικώς νεφελώδης
 Ανεμος από Ν
Ανεμος: Ν 28 km/h, Ριπή: 46 km/h
Θερμοκρασία: 14°C
Σημ. Δρόσου: 6°C
Υγρασία: 59%
Βαρόμετρο: 1016 hPa
Νέφωση: Μερικώς νεφελώδης
Ορατότητα: 10 km
Λεπτομέρειες Νεφών: Μερικώς νεφελώδης 457 m
2021/01/23 15:50 LGMK 231550Z 19015G25KT 9999 SCT015 14/06 Q1016
 
LGSR - Santorini Island-Elev 40m
Απόσταση από meteothes.gr: ΝΝΑ 520km
Ενημερώθηκε: 23/01/2021 18:20
Μερικώς νεφελώδης
Μερικώς νεφελώδης
 Ανεμος από ΝΝΔ
Ανεμος: ΝΝΔ 11 km/h
Θερμοκρασία: 15°C
Σημ. Δρόσου: 7°C
Υγρασία: 59%
Βαρόμετρο: 1017 hPa
Νέφωση: Μερικώς νεφελώδης
Ορατότητα: 10 km
Λεπτομέρειες Νεφών: Μερικώς νεφελώδης 762 m
2021/01/23 16:20 LGSR 231620Z 20006KT 9999 SCT025 15/07 Q1017
LGKL - Kalamata-Elev 8m
Απόσταση από meteothes.gr: Ν 405km
Ενημερώθηκε: 23/01/2021 18:20
Συννεφιά
Συννεφιά
 Ανεμος από Ν
Ανεμος: Ν 17 km/h
Θερμοκρασία: 15°C
Σημ. Δρόσου: 11°C
Υγρασία: 77%
Βαρόμετρο: 1014 hPa
Νέφωση: Συννεφιά
Ορατότητα: 7 km
Λεπτομέρειες Νεφών: Διάσπαρτα Nέφη 610 m
Μερικώς νεφελώδης 762 m
Συννεφιά 2438 m
2021/01/23 16:20 LGKL 231620Z 17009KT 7000 FEW020TCU SCT025 OVC080 15/11 Q1014
 
LGIR - Iraklion/Crete-Elev 5m
Απόσταση από meteothes.gr: ΝΝΑ 622km
Ενημερώθηκε: 23/01/2021 18:20
Μερικώς νεφελώδης
Μερικώς νεφελώδης
 Ανεμος από Ν
Ανεμος: Ν 24 km/h
Θερμοκρασία: 14°C
Σημ. Δρόσου: 6°C
Υγρασία: 59%
Βαρόμετρο: 1016 hPa
Νέφωση: Μερικώς νεφελώδης
Ορατότητα: 10 km
Λεπτομέρειες Νεφών: Μερικώς νεφελώδης 762 m
Μερικώς νεφελώδης 2438 m
2021/01/23 16:20 LGIR 231620Z 19013KT 9999 SCT025 SCT080 14/06 Q1016 NOSIG
LGRP - Rhodes-Elev 5m
Απόσταση από meteothes.gr: ΝΑ 649km
Ενημερώθηκε: 23/01/2021 18:20
Μερικώς νεφελώδης
Μερικώς νεφελώδης
 Ανεμος από μεταβλητός
Ανεμος: μεταβλητός 6 km/h
Θερμοκρασία: 14°C
Σημ. Δρόσου: 8°C
Υγρασία: 67%
Βαρόμετρο: 1019 hPa
Νέφωση: Μερικώς νεφελώδης
Ορατότητα: 10 km
Λεπτομέρειες Νεφών: Διάσπαρτα Nέφη 549 m
Μερικώς νεφελώδης 762 m
2021/01/23 16:20 LGRP 231620Z VRB03KT 9999 FEW018 SCT025 14/08 Q1019 NOSIG
 
LWOH - Ohrid/FYROM-Elev 761m
Απόσταση από meteothes.gr: ΔΒΔ 188km
Ενημερώθηκε: 23/01/2021 18:30
Ασθενής βροχή, Συννεφιά
Ασθενής βροχή, Συννεφιά
 Ανεμος από ΑΝΑ
Ανεμος: ΑΝΑ 6 km/h
Θερμοκρασία: 5°C
Σημ. Δρόσου: 2°C
Υγρασία: 81%
Βαρόμετρο: 1006 hPa
Συνθήκες: Ασθενής βροχή
Νέφωση: Συννεφιά
Ορατότητα: 10 km
Λεπτομέρειες Νεφών: Μερικώς νεφελώδης 610 m
Συννεφιά 1067 m
2021/01/23 16:30 LWOH 231630Z 12003KT 9999 -RA SCT020 OVC035 05/02 Q1006
LBSF - Sofia/Bulgaria-Elev 595m
Απόσταση από meteothes.gr: Β 227km
Ενημερώθηκε: 23/01/2021 18:30
Μερικώς νεφελώδης
Μερικώς νεφελώδης
 Ανεμος από Α
Ανεμος: Α 13 km/h
Θερμοκρασία: 6°C
Αίσθηση Ψύχρας: 3°C
Σημ. Δρόσου: 2°C
Υγρασία: 76%
Βαρόμετρο: 1006 hPa
Νέφωση: Μερικώς νεφελώδης
Ορατότητα: 10 km
Λεπτομέρειες Νεφών: Διάσπαρτα Nέφη 1981 m
Μερικώς νεφελώδης 2560 m
2021/01/23 16:30 LBSF 231630Z 09007KT 9999 FEW065 SCT084 06/02 Q1006 NOSIG

(*) Μερικές αναφορές παρουσιάζουν λιγότερα στοιχεία γιατί οι αρχικές είναι ελλιπείς ή έχουν λάθος μορφοποίηση!